createdAt,value
2018-09-24T00:00:30.263Z,1020.98
2018-09-24T00:01:40.158Z,1021.05
2018-09-24T00:02:50.093Z,1021.21
2018-09-24T00:04:00.244Z,1021.13
2018-09-24T00:05:10.173Z,1021.11
2018-09-24T00:06:19.289Z,1021.17
2018-09-24T00:07:29.171Z,1021.11
2018-09-24T00:08:39.061Z,1021.03
2018-09-24T00:09:48.950Z,1021.05
2018-09-24T00:10:58.569Z,1021.01
2018-09-24T00:12:08.756Z,1020.98
2018-09-24T00:13:18.676Z,1021.06
2018-09-24T00:14:28.842Z,1020.96
2018-09-24T00:15:38.182Z,1020.98
2018-09-24T00:16:48.072Z,1021.06
2018-09-24T00:17:57.684Z,1021.05
2018-09-24T00:19:07.569Z,1021.03
2018-09-24T00:20:17.494Z,1021.05
2018-09-24T00:21:27.376Z,1021.06
2018-09-24T00:22:37.296Z,1021.04
2018-09-24T00:23:47.505Z,1021.07
2018-09-24T00:24:57.664Z,1021.05
2018-09-24T00:26:07.323Z,1021.1
2018-09-24T00:27:16.944Z,1021.2
2018-09-24T00:28:26.864Z,1021.22
2018-09-24T00:29:36.761Z,1021.27
2018-09-24T00:30:46.951Z,1021.32
2018-09-24T00:31:56.839Z,1021.46
2018-09-24T00:33:07.030Z,1021.67
2018-09-24T00:34:16.926Z,1021.67
2018-09-24T00:35:26.820Z,1021.68
2018-09-24T00:36:36.435Z,1021.68
2018-09-24T00:37:46.326Z,1021.67
2018-09-24T00:38:56.214Z,1021.69
2018-09-24T00:40:06.375Z,1021.68
2018-09-24T00:41:16.302Z,1021.75
2018-09-24T00:42:25.912Z,1021.75
2018-09-24T00:43:35.804Z,1021.7
2018-09-24T00:44:46.083Z,1021.57
2018-09-24T00:45:55.964Z,1021.35
2018-09-24T00:47:06.054Z,1021.38
2018-09-24T00:48:15.945Z,1021.41
2018-09-24T00:49:26.107Z,1021.46
2018-09-24T00:50:35.992Z,1021.42
2018-09-24T00:51:46.164Z,1021.49
2018-09-24T00:52:56.080Z,1021.47
2018-09-24T00:54:06.017Z,1021.46
2018-09-24T00:55:15.084Z,1021.52
2018-09-24T00:56:25.254Z,1021.54
2018-09-24T00:57:35.144Z,1021.74
2018-09-24T00:58:45.030Z,1021.79
2018-09-24T00:59:55.193Z,1021.68
2018-09-24T01:01:05.359Z,1021.66
2018-09-24T01:02:14.976Z,1021.67
2018-09-24T01:03:24.318Z,1021.64
2018-09-24T01:04:34.486Z,1021.66
2018-09-24T01:05:44.644Z,1021.71
2018-09-24T01:06:53.726Z,1021.76
2018-09-24T01:08:03.343Z,1021.78
2018-09-24T01:09:12.958Z,1021.75
2018-09-24T01:10:22.855Z,1021.73
2018-09-24T01:11:32.742Z,1021.76
2018-09-24T01:12:42.901Z,1021.76
2018-09-24T01:13:53.302Z,1021.8
2018-09-24T01:15:02.909Z,1021.83
2018-09-24T01:16:12.797Z,1021.8
2018-09-24T01:17:22.971Z,1021.83
2018-09-24T01:18:32.875Z,1021.92
2018-09-24T01:19:43.039Z,1021.95
2018-09-24T01:20:52.938Z,1022.12
2018-09-24T01:22:02.825Z,1022.31
2018-09-24T01:23:12.215Z,1022.43
2018-09-24T01:24:22.106Z,1022.41
2018-09-24T01:25:31.992Z,1022.4
2018-09-24T01:26:42.158Z,1022.4
2018-09-24T01:27:52.044Z,1022.34
2018-09-24T01:29:01.979Z,1022.38
2018-09-24T01:30:11.601Z,1022.46
2018-09-24T01:31:21.768Z,1022.3
2018-09-24T01:32:31.957Z,1022.03
2018-09-24T01:33:41.854Z,1022.14
2018-09-24T01:34:52.017Z,1022.24
2018-09-24T01:36:02.189Z,1022.24
2018-09-24T01:37:11.834Z,1022.22
2018-09-24T01:38:21.724Z,1022.18
2018-09-24T01:39:31.616Z,1022.15
2018-09-24T01:40:41.515Z,1022.17
2018-09-24T01:41:50.860Z,1022.19
2018-09-24T01:43:00.825Z,1022.23
2018-09-24T01:44:10.427Z,1022.24
2018-09-24T01:45:20.316Z,1022.45
2018-09-24T01:46:30.212Z,1022.53
2018-09-24T01:47:40.102Z,1022.62
2018-09-24T01:48:49.717Z,1022.66
2018-09-24T01:49:59.891Z,1022.87
2018-09-24T01:51:09.509Z,1023
2018-09-24T01:52:19.683Z,1022.99
2018-09-24T01:53:29.021Z,1023.08
2018-09-24T01:54:39.145Z,1023.03
2018-09-24T01:55:49.282Z,1022.99
2018-09-24T01:56:59.170Z,1022.98
2018-09-24T01:58:09.092Z,1022.92
2018-09-24T01:59:19.255Z,1022.85
2018-09-24T02:00:28.865Z,1022.74
2018-09-24T02:01:38.768Z,1022.78
2018-09-24T02:02:48.927Z,1022.76
2018-09-24T02:03:59.123Z,1022.78
2018-09-24T02:05:09.065Z,1022.78
2018-09-24T02:06:18.405Z,1022.79
2018-09-24T02:07:28.290Z,1022.74
2018-09-24T02:08:38.170Z,1022.77
2018-09-24T02:09:47.784Z,1022.82
2018-09-24T02:10:57.396Z,1022.93
2018-09-24T02:12:07.280Z,1022.89
2018-09-24T02:13:17.169Z,1022.99
2018-09-24T02:14:26.775Z,1022.96
2018-09-24T02:15:36.715Z,1022.93
2018-09-24T02:16:46.887Z,1022.92
2018-09-24T02:17:57.056Z,1022.95
2018-09-24T02:19:06.949Z,1023.01
2018-09-24T02:20:16.839Z,1023.04
2018-09-24T02:21:26.719Z,1023
2018-09-24T02:22:36.804Z,1023.02
2018-09-24T02:23:46.433Z,1023.03
2018-09-24T02:24:56.298Z,1023.1
2018-09-24T02:26:06.471Z,1023.08
2018-09-24T02:27:16.651Z,1023.02
2018-09-24T02:28:26.981Z,1023.02
2018-09-24T02:29:36.876Z,1023.08
2018-09-24T02:30:46.769Z,1023.09
2018-09-24T02:31:56.963Z,1023.17
2018-09-24T02:33:06.856Z,1023.22
2018-09-24T02:34:16.747Z,1023.23
2018-09-24T02:35:26.058Z,1023.26
2018-09-24T02:36:35.935Z,1023.29
2018-09-24T02:37:46.306Z,1023.32
2018-09-24T02:38:56.473Z,1023.21
2018-09-24T02:40:06.359Z,1023.3
2018-09-24T02:41:16.514Z,1023.31
2018-09-24T02:42:26.406Z,1023.36
2018-09-24T02:43:36.016Z,1023.41
2018-09-24T02:44:45.673Z,1023.39
2018-09-24T02:45:55.566Z,1023.37
2018-09-24T02:47:05.469Z,1023.38
2018-09-24T02:48:15.359Z,1023.41
2018-09-24T02:49:25.510Z,1023.42
2018-09-24T02:50:34.581Z,1023.34
2018-09-24T02:51:44.502Z,1023.33
2018-09-24T02:52:54.673Z,1023.35
2018-09-24T02:54:04.597Z,1023.47
2018-09-24T02:55:13.938Z,1023.41
2018-09-24T02:56:23.876Z,1023.42
2018-09-24T02:57:33.771Z,1023.5
2018-09-24T02:58:43.117Z,1023.48
2018-09-24T02:59:53.294Z,1023.52
2018-09-24T03:01:03.463Z,1023.6
2018-09-24T03:02:13.906Z,1023.64
2018-09-24T03:03:23.520Z,1023.67
2018-09-24T03:04:33.428Z,1023.68
2018-09-24T03:05:43.353Z,1023.71
2018-09-24T03:06:53.251Z,1023.78
2018-09-24T03:08:03.140Z,1023.78
2018-09-24T03:09:12.489Z,1023.8
2018-09-24T03:10:22.693Z,1023.78
2018-09-24T03:11:32.585Z,1023.83
2018-09-24T03:12:42.214Z,1023.8
2018-09-24T03:13:52.593Z,1023.82
2018-09-24T03:15:02.756Z,1023.83
2018-09-24T03:16:12.930Z,1023.82
2018-09-24T03:17:22.280Z,1023.88
2018-09-24T03:18:32.183Z,1023.87
2018-09-24T03:19:42.108Z,1023.86
2018-09-24T03:20:51.995Z,1023.92
2018-09-24T03:22:01.616Z,1023.91
2018-09-24T03:23:11.231Z,1023.91
2018-09-24T03:24:21.398Z,1023.94
2018-09-24T03:25:31.008Z,1024
2018-09-24T03:26:40.657Z,1023.96
2018-09-24T03:27:50.279Z,1024.01
2018-09-24T03:29:00.441Z,1024.06
2018-09-24T03:30:10.639Z,1024.08
2018-09-24T03:31:20.277Z,1023.97
2018-09-24T03:32:30.196Z,1023.96
2018-09-24T03:33:40.102Z,1024.07
2018-09-24T03:34:49.994Z,1024.16
2018-09-24T03:35:59.607Z,1024.14
2018-09-24T03:37:08.944Z,1024.11
2018-09-24T03:38:18.830Z,1024.2
2018-09-24T03:39:28.770Z,1024.24
2018-09-24T03:40:38.661Z,1024.19
2018-09-24T03:41:48.315Z,1024.21
2018-09-24T03:42:58.413Z,1024.1
2018-09-24T03:44:08.584Z,1024.13
2018-09-24T03:45:18.195Z,1024.15
2018-09-24T03:46:28.094Z,1024.21
2018-09-24T03:47:38.255Z,1024.23
2018-09-24T03:48:47.881Z,1024.2
2018-09-24T03:49:57.507Z,1024.2
2018-09-24T03:51:06.898Z,1024.24
2018-09-24T03:52:16.507Z,1024.23
2018-09-24T03:53:26.397Z,1024.27
2018-09-24T03:54:36.633Z,1024.26
2018-09-24T03:55:46.816Z,1024.23
2018-09-24T03:56:56.707Z,1024.21
2018-09-24T03:58:06.634Z,1024.27
2018-09-24T03:59:16.800Z,1024.36
2018-09-24T04:00:26.186Z,1024.36
2018-09-24T04:01:36.072Z,1024.4
2018-09-24T04:02:45.998Z,1024.43
2018-09-24T04:03:56.123Z,1024.43
2018-09-24T04:05:05.480Z,1024.47
2018-09-24T04:06:15.154Z,1024.6
2018-09-24T04:07:24.760Z,1024.65
2018-09-24T04:08:34.646Z,1024.81
2018-09-24T04:09:44.884Z,1024.85
2018-09-24T04:10:55.470Z,1024.91
2018-09-24T04:12:06.056Z,1024.97
2018-09-24T04:13:15.672Z,1024.95
2018-09-24T04:14:25.856Z,1024.94
2018-09-24T04:15:35.477Z,1024.92
2018-09-24T04:16:45.369Z,1024.95
2018-09-24T04:17:55.274Z,1024.94
2018-09-24T04:19:05.440Z,1024.88
2018-09-24T04:20:15.336Z,1024.85
2018-09-24T04:21:25.226Z,1024.83
2018-09-24T04:22:35.109Z,1024.86
2018-09-24T04:23:44.731Z,1024.89
2018-09-24T04:24:54.615Z,1024.92
2018-09-24T04:26:03.999Z,1024.87
2018-09-24T04:27:14.103Z,1024.92
2018-09-24T04:28:23.715Z,1024.88
2018-09-24T04:29:33.900Z,1024.84
2018-09-24T04:30:43.787Z,1024.87
2018-09-24T04:31:53.672Z,1024.88
2018-09-24T04:33:03.323Z,1024.83
2018-09-24T04:34:13.488Z,1024.82
2018-09-24T04:35:23.387Z,1024.91
2018-09-24T04:36:33.543Z,1025.02
2018-09-24T04:37:43.178Z,1025.16
2018-09-24T04:38:53.586Z,1025.29
2018-09-24T04:40:03.498Z,1025.35
2018-09-24T04:41:13.423Z,1025.43
2018-09-24T04:42:23.560Z,1025.41
2018-09-24T04:43:33.213Z,1025.16
2018-09-24T04:44:43.414Z,1024.92
2018-09-24T04:45:53.311Z,1025.06
2018-09-24T04:47:03.524Z,1024.98
2018-09-24T04:48:13.423Z,1025
2018-09-24T04:49:23.543Z,1024.96
2018-09-24T04:50:32.887Z,1024.94
2018-09-24T04:51:43.115Z,1024.98
2018-09-24T04:52:53.016Z,1025.03
2018-09-24T04:54:02.637Z,1025.03
2018-09-24T04:55:12.262Z,1025.04
2018-09-24T04:56:21.602Z,1025.09
2018-09-24T04:57:31.221Z,1025.1
2018-09-24T04:58:40.874Z,1025.19
2018-09-24T04:59:51.222Z,1025.23
2018-09-24T05:01:01.127Z,1025.17
2018-09-24T05:02:11.028Z,1025.16
2018-09-24T05:03:21.465Z,1025.21
2018-09-24T05:04:31.667Z,1025.22
2018-09-24T05:05:41.570Z,1025.21
2018-09-24T05:06:51.183Z,1025.32
2018-09-24T05:08:01.071Z,1025.39
2018-09-24T05:09:10.991Z,1025.47
2018-09-24T05:10:20.629Z,1025.48
2018-09-24T05:11:30.311Z,1025.45
2018-09-24T05:12:39.650Z,1025.4
2018-09-24T05:13:49.546Z,1025.39
2018-09-24T05:14:59.429Z,1025.41
2018-09-24T05:16:09.858Z,1025.4
2018-09-24T05:17:19.771Z,1025.2
2018-09-24T05:18:29.384Z,1025.33
2018-09-24T05:19:39.002Z,1025.36
2018-09-24T05:20:48.607Z,1025.33
2018-09-24T05:21:58.492Z,1025.39
2018-09-24T05:23:08.106Z,1025.36
2018-09-24T05:24:17.995Z,1025.34
2018-09-24T05:25:28.171Z,1025.41
2018-09-24T05:26:38.104Z,1025.4
2018-09-24T05:27:47.448Z,1025.37
2018-09-24T05:28:56.793Z,1025.43
2018-09-24T05:30:06.126Z,1025.44
2018-09-24T05:31:16.290Z,1025.54
2018-09-24T05:32:26.516Z,1025.51
2018-09-24T05:33:37.009Z,1025.61
2018-09-24T05:34:46.621Z,1025.52
2018-09-24T05:35:56.804Z,1025.53
2018-09-24T05:37:06.446Z,1025.52
2018-09-24T05:38:15.819Z,1025.37
2018-09-24T05:39:25.485Z,1025.37
2018-09-24T05:40:35.098Z,1025.41
2018-09-24T05:41:44.163Z,1025.4
2018-09-24T05:42:53.809Z,1025.44
2018-09-24T05:44:03.976Z,1025.5
2018-09-24T05:45:14.146Z,1025.49
2018-09-24T05:46:24.039Z,1025.55
2018-09-24T05:47:33.919Z,1025.55
2018-09-24T05:48:44.152Z,1025.52
2018-09-24T05:49:54.073Z,1025.55
2018-09-24T05:51:04.312Z,1025.53
2018-09-24T05:52:14.288Z,1025.58
2018-09-24T05:53:24.268Z,1025.59
2018-09-24T05:54:34.123Z,1025.63
2018-09-24T05:55:44.281Z,1025.67
2018-09-24T05:56:54.441Z,1025.65
2018-09-24T05:58:03.506Z,1025.63
2018-09-24T05:59:12.572Z,1025.64
2018-09-24T06:00:22.177Z,1025.65
2018-09-24T06:01:31.784Z,1025.71
2018-09-24T06:02:41.447Z,1025.69
2018-09-24T06:03:51.356Z,1025.73
2018-09-24T06:05:00.689Z,1025.81
2018-09-24T06:06:10.324Z,1025.87
2018-09-24T06:07:19.945Z,1025.91
2018-09-24T06:08:30.108Z,1026
2018-09-24T06:09:39.713Z,1025.99
2018-09-24T06:10:49.599Z,1026.03
2018-09-24T06:11:59.526Z,1026.05
2018-09-24T06:13:09.139Z,1026.1
2018-09-24T06:14:19.019Z,1026.04
2018-09-24T06:15:29.218Z,1026.1
2018-09-24T06:16:38.831Z,1026.09
2018-09-24T06:17:48.721Z,1026.11
2018-09-24T06:18:58.399Z,1026.06
2018-09-24T06:20:08.702Z,1026.08
2018-09-24T06:21:18.312Z,1026.14
2018-09-24T06:22:28.482Z,1026.19
2018-09-24T06:23:37.812Z,1026.14
2018-09-24T06:24:47.715Z,1026.16
2018-09-24T06:25:57.048Z,1026.15
2018-09-24T06:27:06.659Z,1026.17
2018-09-24T06:28:16.908Z,1026.17
2018-09-24T06:29:27.324Z,1026.15
2018-09-24T06:30:36.656Z,1026.1
2018-09-24T06:31:46.544Z,1026.13
2018-09-24T06:32:55.886Z,1026.22
2018-09-24T06:34:05.772Z,1026.21
2018-09-24T06:35:16.010Z,1026.22
2018-09-24T06:36:26.217Z,1026.27
2018-09-24T06:37:36.099Z,1026.2
2018-09-24T06:38:45.725Z,1026.25
2018-09-24T06:39:55.613Z,1026.28
2018-09-24T06:41:05.327Z,1026.21
2018-09-24T06:42:15.956Z,1026.22
2018-09-24T06:43:25.599Z,1026.21
2018-09-24T06:44:35.494Z,1026.27
2018-09-24T06:45:45.188Z,1026.26
2018-09-24T06:46:55.441Z,1026.25
2018-09-24T06:48:05.328Z,1026.27
2018-09-24T06:49:14.656Z,1026.28
2018-09-24T06:50:24.820Z,1026.29
2018-09-24T06:51:34.983Z,1026.37
2018-09-24T06:52:44.882Z,1026.41
2018-09-24T06:53:54.733Z,1026.36
2018-09-24T06:55:04.340Z,1026.42
2018-09-24T06:56:13.989Z,1026.46
2018-09-24T06:57:23.602Z,1026.51
2018-09-24T06:58:33.210Z,1026.48
2018-09-24T06:59:43.153Z,1026.55
2018-09-24T07:00:53.008Z,1026.58
2018-09-24T07:02:02.623Z,1026.63
2018-09-24T07:03:12.822Z,1026.67
2018-09-24T07:04:22.740Z,1026.71
2018-09-24T07:05:32.698Z,1026.73
2018-09-24T07:06:42.802Z,1026.84
2018-09-24T07:07:52.686Z,1026.83
2018-09-24T07:09:02.561Z,1026.82
2018-09-24T07:10:12.172Z,1026.88
2018-09-24T07:11:21.574Z,1026.96
2018-09-24T07:12:32.088Z,1026.97
2018-09-24T07:13:41.440Z,1026.98
2018-09-24T07:14:50.791Z,1027.07
2018-09-24T07:16:00.962Z,1027.13
2018-09-24T07:17:10.851Z,1027.15
2018-09-24T07:18:20.774Z,1027.2
2018-09-24T07:19:30.374Z,1027.24
2018-09-24T07:20:40.538Z,1027.23
2018-09-24T07:21:50.432Z,1027.28
2018-09-24T07:23:00.590Z,1027.26
2018-09-24T07:24:10.203Z,1027.24
2018-09-24T07:25:20.370Z,1027.28
2018-09-24T07:26:30.257Z,1027.34
2018-09-24T07:27:39.895Z,1027.3
2018-09-24T07:28:50.258Z,1027.33
2018-09-24T07:29:59.600Z,1027.34
2018-09-24T07:31:09.222Z,1027.36
2018-09-24T07:32:18.843Z,1027.4
2018-09-24T07:33:28.456Z,1027.4
2018-09-24T07:34:37.814Z,1027.38
2018-09-24T07:35:47.156Z,1027.4
2018-09-24T07:36:57.051Z,1027.47
2018-09-24T07:38:06.963Z,1027.46
2018-09-24T07:39:16.882Z,1027.58
2018-09-24T07:40:26.489Z,1027.58
2018-09-24T07:41:36.105Z,1027.65
2018-09-24T07:42:45.752Z,1027.68
2018-09-24T07:43:55.433Z,1027.66
2018-09-24T07:45:05.326Z,1027.75
2018-09-24T07:46:15.490Z,1027.74
2018-09-24T07:47:25.649Z,1027.77
2018-09-24T07:48:35.569Z,1027.76
2018-09-24T07:49:45.500Z,1027.77
2018-09-24T07:50:55.399Z,1027.76
2018-09-24T07:52:05.072Z,1027.7
2018-09-24T07:53:14.688Z,1027.74
2018-09-24T07:54:24.565Z,1027.72
2018-09-24T07:55:34.314Z,1027.78
2018-09-24T07:56:44.685Z,1027.81
2018-09-24T07:57:54.852Z,1027.88
2018-09-24T07:59:05.105Z,1027.86
2018-09-24T08:00:15.299Z,1027.87
2018-09-24T08:01:25.674Z,1027.97
2018-09-24T08:02:35.562Z,1027.94
2018-09-24T08:03:45.798Z,1027.9
2018-09-24T08:04:55.685Z,1027.95
2018-09-24T08:06:05.299Z,1027.88
2018-09-24T08:07:15.232Z,1027.92
2018-09-24T08:08:25.512Z,1027.83
2018-09-24T08:09:35.680Z,1027.92
2018-09-24T08:10:45.571Z,1027.89
2018-09-24T08:11:55.501Z,1027.94
2018-09-24T08:13:05.960Z,1027.9
2018-09-24T08:14:16.349Z,1028.02
2018-09-24T08:15:26.243Z,1028.01
2018-09-24T08:16:36.108Z,1028.06
2018-09-24T08:17:45.728Z,1028.08
2018-09-24T08:18:55.620Z,1028.13
2018-09-24T08:20:05.508Z,1028.14
2018-09-24T08:21:15.120Z,1028.16
2018-09-24T08:22:24.738Z,1028.22
2018-09-24T08:23:34.931Z,1028.2
2018-09-24T08:24:44.557Z,1028.22
2018-09-24T08:25:54.541Z,1028.29
2018-09-24T08:27:04.162Z,1028.18
2018-09-24T08:28:13.838Z,1028.23
2018-09-24T08:29:23.184Z,1028.25
2018-09-24T08:30:33.069Z,1028.28
2018-09-24T08:31:42.677Z,1028.36
2018-09-24T08:32:52.570Z,1028.37
2018-09-24T08:34:02.183Z,1028.45
2018-09-24T08:35:12.062Z,1028.5
2018-09-24T08:36:21.720Z,1028.58
2018-09-24T08:37:31.492Z,1028.69
2018-09-24T08:38:41.147Z,1028.65
2018-09-24T08:39:51.063Z,1028.64
2018-09-24T08:41:00.720Z,1028.72
2018-09-24T08:42:10.337Z,1028.61
2018-09-24T08:43:19.677Z,1028.72
2018-09-24T08:44:29.302Z,1028.66
2018-09-24T08:45:39.475Z,1028.62
2018-09-24T08:46:49.355Z,1028.68
2018-09-24T08:47:59.246Z,1028.77
2018-09-24T08:49:08.327Z,1028.8
2018-09-24T08:50:17.670Z,1028.81
2018-09-24T08:51:27.012Z,1028.86
2018-09-24T08:52:36.906Z,1028.88
2018-09-24T08:53:47.074Z,1028.84
2018-09-24T08:54:56.960Z,1028.82
2018-09-24T08:56:06.617Z,1028.76
2018-09-24T08:57:16.051Z,1028.79
2018-09-24T08:58:25.898Z,1028.82
2018-09-24T08:59:34.973Z,1028.83
2018-09-24T09:00:45.133Z,1028.77
2018-09-24T09:01:54.476Z,1028.76
2018-09-24T09:03:04.364Z,1028.82
2018-09-24T09:04:14.261Z,1028.83
2018-09-24T09:05:23.603Z,1028.8
2018-09-24T09:06:33.813Z,1028.85
2018-09-24T09:07:43.725Z,1028.88
2018-09-24T09:08:52.792Z,1028.86
2018-09-24T09:10:02.150Z,1028.88
2018-09-24T09:11:12.330Z,1028.86
2018-09-24T09:12:22.491Z,1028.89
2018-09-24T09:13:32.430Z,1028.94
2018-09-24T09:14:42.045Z,1028.94
2018-09-24T09:15:52.446Z,1028.99
2018-09-24T09:17:02.340Z,1028.98
2018-09-24T09:18:11.956Z,1028.96
2018-09-24T09:19:22.169Z,1028.93
2018-09-24T09:20:32.052Z,1028.98
2018-09-24T09:21:41.662Z,1029.01
2018-09-24T09:22:52.033Z,1029.06
2018-09-24T09:24:01.716Z,1029.02
2018-09-24T09:25:12.351Z,1028.94
2018-09-24T09:26:22.521Z,1029.03
2018-09-24T09:27:32.693Z,1029.06
2018-09-24T09:28:42.580Z,1028.96
2018-09-24T09:29:52.194Z,1028.94
2018-09-24T09:31:02.370Z,1028.99
2018-09-24T09:32:12.253Z,1028.95
2018-09-24T09:33:21.860Z,1028.9
2018-09-24T09:34:31.748Z,1028.92
2018-09-24T09:35:41.368Z,1028.94
2018-09-24T09:36:51.267Z,1028.99
2018-09-24T09:38:00.891Z,1028.94
2018-09-24T09:39:10.782Z,1028.99
2018-09-24T09:40:20.593Z,1028.99
2018-09-24T09:41:30.273Z,1029
2018-09-24T09:42:40.172Z,1028.95
2018-09-24T09:43:49.818Z,1029.01
2018-09-24T09:44:59.773Z,1028.87
2018-09-24T09:46:09.673Z,1028.89
2018-09-24T09:47:19.568Z,1028.88
2018-09-24T09:48:29.186Z,1028.76
2018-09-24T09:49:38.814Z,1028.8
2018-09-24T09:50:48.421Z,1028.75
2018-09-24T09:51:58.311Z,1028.78
2018-09-24T09:53:08.472Z,1028.81
2018-09-24T09:54:18.368Z,1028.81
2018-09-24T09:55:28.567Z,1028.71
2018-09-24T09:56:38.728Z,1028.78
2018-09-24T09:57:48.892Z,1028.79
2018-09-24T09:58:58.845Z,1028.78
2018-09-24T10:00:08.800Z,1028.71
2018-09-24T10:01:18.136Z,1028.76
2018-09-24T10:02:27.721Z,1028.87
2018-09-24T10:03:37.339Z,1028.99
2018-09-24T10:04:47.303Z,1028.82
2018-09-24T10:05:57.775Z,1028.88
2018-09-24T10:07:07.673Z,1028.94
2018-09-24T10:08:17.558Z,1028.75
2018-09-24T10:09:27.478Z,1028.87
2018-09-24T10:10:37.688Z,1029
2018-09-24T10:11:47.608Z,1028.92
2018-09-24T10:12:56.985Z,1028.85
2018-09-24T10:14:07.141Z,1028.82
2018-09-24T10:15:16.489Z,1028.82
2018-09-24T10:16:26.682Z,1028.89
2018-09-24T10:17:36.603Z,1028.79
2018-09-24T10:18:46.496Z,1028.81
2018-09-24T10:19:56.698Z,1028.81
2018-09-24T10:21:06.597Z,1028.78
2018-09-24T10:22:16.523Z,1028.8
2018-09-24T10:23:26.783Z,1028.79
2018-09-24T10:24:36.688Z,1028.79
2018-09-24T10:25:46.619Z,1028.76
2018-09-24T10:26:56.240Z,1028.84
2018-09-24T10:28:06.118Z,1028.87
2018-09-24T10:29:15.736Z,1028.89
2018-09-24T10:30:25.347Z,1028.94
2018-09-24T10:31:34.992Z,1028.91
2018-09-24T10:32:45.228Z,1028.83
2018-09-24T10:33:55.165Z,1028.82
2018-09-24T10:35:05.077Z,1028.84
2018-09-24T10:36:15.248Z,1029.21
2018-09-24T10:37:25.442Z,1029.07
2018-09-24T10:38:35.376Z,1029.22
2018-09-24T10:39:45.735Z,1029.12
2018-09-24T10:40:56.122Z,1029.17
2018-09-24T10:42:05.740Z,1029.23
2018-09-24T10:43:15.633Z,1029.2
2018-09-24T10:44:25.531Z,1029.43
2018-09-24T10:45:35.453Z,1029.64
2018-09-24T10:46:45.634Z,1029.82
2018-09-24T10:47:55.252Z,1029.83
2018-09-24T10:49:05.143Z,1029.6
2018-09-24T10:50:15.080Z,1029.5
2018-09-24T10:51:24.692Z,1029.62
2018-09-24T10:52:34.035Z,1029.44
2018-09-24T10:53:44.209Z,1029.4
2018-09-24T10:54:53.871Z,1029.39
2018-09-24T10:56:03.853Z,1029.42
2018-09-24T10:57:14.014Z,1029.23
2018-09-24T10:58:23.900Z,1029.25
2018-09-24T10:59:33.644Z,1029.26
2018-09-24T11:00:44.013Z,1029.31
2018-09-24T11:01:54.405Z,1029.28
2018-09-24T11:03:04.634Z,1029.29
2018-09-24T11:04:14.517Z,1029.36
2018-09-24T11:05:24.426Z,1029.31
2018-09-24T11:06:34.317Z,1029.34
2018-09-24T11:07:44.488Z,1029.38
2018-09-24T11:08:54.218Z,1029.31
2018-09-24T11:10:03.561Z,1029.24
2018-09-24T11:11:13.688Z,1029.23
2018-09-24T11:12:23.859Z,1029.21
2018-09-24T11:13:33.745Z,1029.17
2018-09-24T11:14:43.962Z,1029.25
2018-09-24T11:15:54.333Z,1029.22
2018-09-24T11:17:04.796Z,1029.19
2018-09-24T11:18:16.156Z,1029.23
2018-09-24T11:19:26.368Z,1029.26
2018-09-24T11:20:36.258Z,1029.22
2018-09-24T11:21:45.926Z,1029.25
2018-09-24T11:22:55.848Z,1029.19
2018-09-24T11:24:05.463Z,1029.26
2018-09-24T11:25:14.814Z,1029.25
2018-09-24T11:27:37.628Z,1029.18
2018-09-24T11:28:47.548Z,1029.21
2018-09-24T11:29:57.709Z,1029.25
2018-09-24T11:31:07.604Z,1029.37
2018-09-24T11:32:17.691Z,1029.31
2018-09-24T11:33:27.588Z,1029.34
2018-09-24T11:34:37.209Z,1029.38
2018-09-24T11:35:47.110Z,1029.3
2018-09-24T11:36:56.734Z,1029.41
2018-09-24T11:38:06.628Z,1029.39
2018-09-24T11:39:16.807Z,1029.49
2018-09-24T11:40:26.968Z,1029.43
2018-09-24T11:41:36.584Z,1029.48
2018-09-24T11:42:46.708Z,1029.44
2018-09-24T11:43:56.624Z,1029.42
2018-09-24T11:45:06.796Z,1029.38
2018-09-24T11:46:16.712Z,1029.4
2018-09-24T11:47:26.785Z,1029.57
2018-09-24T11:48:36.950Z,1029.54
2018-09-24T11:49:46.883Z,1029.64
2018-09-24T11:50:56.219Z,1029.6
2018-09-24T11:52:05.809Z,1029.66
2018-09-24T11:53:15.904Z,1029.75
2018-09-24T11:54:25.522Z,1029.69
2018-09-24T11:55:35.418Z,1029.75
2018-09-24T11:56:45.608Z,1029.86
2018-09-24T11:57:55.234Z,1029.69
2018-09-24T11:59:05.399Z,1029.81
2018-09-24T12:00:15.555Z,1029.82
2018-09-24T12:01:25.183Z,1029.73
2018-09-24T12:02:35.393Z,1029.76
2018-09-24T12:03:45.011Z,1029.74
2018-09-24T12:04:55.173Z,1029.78
2018-09-24T12:06:05.076Z,1029.77
2018-09-24T12:07:15.240Z,1029.8
2018-09-24T12:08:24.310Z,1029.83
2018-09-24T12:09:34.123Z,1029.89
2018-09-24T12:10:43.768Z,1029.86
2018-09-24T12:11:53.121Z,1029.9
2018-09-24T12:13:02.737Z,1029.85
2018-09-24T12:14:12.631Z,1029.85
2018-09-24T12:15:22.803Z,1029.84
2018-09-24T12:16:32.414Z,1029.99
2018-09-24T12:17:42.344Z,1029.92
2018-09-24T12:18:52.558Z,1030.02
2018-09-24T12:20:02.179Z,1030
2018-09-24T12:21:12.107Z,1029.99
2018-09-24T12:22:21.453Z,1030.05
2018-09-24T12:23:31.344Z,1030.11
2018-09-24T12:24:41.250Z,1030.16
2018-09-24T12:25:51.150Z,1030.15
2018-09-24T12:27:00.797Z,1030.22
2018-09-24T12:28:09.868Z,1030.21
2018-09-24T12:29:19.213Z,1030.23
2018-09-24T12:30:28.852Z,1030.23
2018-09-24T12:31:39.054Z,1030.29
2018-09-24T12:32:49.222Z,1030.3
2018-09-24T12:33:59.110Z,1030.46
2018-09-24T12:35:09.275Z,1030.45
2018-09-24T12:36:19.166Z,1030.38
2018-09-24T12:37:28.507Z,1030.31
2018-09-24T12:38:37.854Z,1030.2
2018-09-24T12:39:47.743Z,1030.1
2018-09-24T12:40:57.638Z,1030.17
2018-09-24T12:42:07.324Z,1030.16
2018-09-24T12:43:17.527Z,1030.14
2018-09-24T12:44:27.143Z,1030.27
2018-09-24T12:45:36.480Z,1030.2
2018-09-24T12:46:46.376Z,1030.23
2018-09-24T12:47:55.845Z,1030.24
2018-09-24T12:49:06.352Z,1030.24
2018-09-24T12:50:16.528Z,1030.21
2018-09-24T12:51:26.708Z,1030.21
2018-09-24T12:52:36.873Z,1030.21
2018-09-24T12:53:46.497Z,1030.17
2018-09-24T12:54:56.601Z,1030.13
2018-09-24T12:56:06.799Z,1030.18
2018-09-24T12:57:16.899Z,1030.17
2018-09-24T12:58:26.819Z,1030.18
2018-09-24T12:59:36.711Z,1030.2
2018-09-24T13:00:46.055Z,1030.24
2018-09-24T13:01:55.954Z,1030.25
2018-09-24T13:03:06.113Z,1030.31
2018-09-24T13:04:16.005Z,1030.23
2018-09-24T13:05:25.928Z,1030.22
2018-09-24T13:06:35.553Z,1030.2
2018-09-24T13:07:45.729Z,1030.29
2018-09-24T13:08:55.894Z,1030.26
2018-09-24T13:10:05.790Z,1030.29
2018-09-24T13:11:15.730Z,1030.28
2018-09-24T13:12:25.347Z,1030.32
2018-09-24T13:13:35.517Z,1030.28
2018-09-24T13:14:45.449Z,1030.24
2018-09-24T13:15:54.796Z,1030.27
2018-09-24T13:17:05.022Z,1030.31
2018-09-24T13:18:14.913Z,1030.3
2018-09-24T13:19:24.526Z,1030.29
2018-09-24T13:20:34.426Z,1030.27
2018-09-24T13:21:44.317Z,1030.27
2018-09-24T13:22:54.210Z,1030.25
2018-09-24T13:24:04.392Z,1030.3
2018-09-24T13:25:14.048Z,1030.29
2018-09-24T13:26:23.999Z,1030.27
2018-09-24T13:27:33.312Z,1030.23
2018-09-24T13:28:43.284Z,1030.14
2018-09-24T13:29:53.203Z,1030.17
2018-09-24T13:31:02.835Z,1030.14
2018-09-24T13:32:12.734Z,1030.17
2018-09-24T13:33:22.347Z,1030.2
2018-09-24T13:34:31.710Z,1030.22
2018-09-24T13:35:41.881Z,1030.22
2018-09-24T13:36:51.536Z,1030.2
2018-09-24T13:38:01.439Z,1030.2
2018-09-24T13:39:11.057Z,1030.18
2018-09-24T13:40:21.234Z,1030.16
2018-09-24T13:41:31.130Z,1030.19
2018-09-24T13:42:40.471Z,1030.19
2018-09-24T13:43:50.698Z,1030.27
2018-09-24T13:45:00.600Z,1030.33
2018-09-24T13:46:10.507Z,1030.34
2018-09-24T13:47:20.131Z,1030.25
2018-09-24T13:48:30.296Z,1030.35
2018-09-24T13:49:39.905Z,1030.29
2018-09-24T13:50:49.833Z,1030.37
2018-09-24T13:51:59.771Z,1030.45
2018-09-24T13:53:09.658Z,1030.51
2018-09-24T13:54:19.285Z,1030.64
2018-09-24T13:55:28.905Z,1030.79
2018-09-24T13:56:38.831Z,1030.89
2018-09-24T13:57:48.720Z,1030.64
2018-09-24T13:58:58.883Z,1030.6
2018-09-24T14:00:08.252Z,1030.54
2018-09-24T14:01:18.144Z,1030.64
2018-09-24T14:02:27.764Z,1030.6
2018-09-24T14:03:37.698Z,1030.58
2018-09-24T14:04:47.591Z,1030.53
2018-09-24T14:05:57.474Z,1030.62
2018-09-24T14:07:07.335Z,1030.6
2018-09-24T14:08:17.498Z,1030.67
2018-09-24T14:09:27.678Z,1030.62